sensor_id;sensor_type;location;lat;lon;timestamp;temperature;humidity
27384;DHT22;14851;51.166;4.760;2022-10-16T00:01:21;13.00;99.90
27384;DHT22;14851;51.166;4.760;2022-10-16T00:03:48;13.00;99.90
27384;DHT22;14851;51.166;4.760;2022-10-16T00:06:14;13.00;99.90
27384;DHT22;14851;51.166;4.760;2022-10-16T00:08:42;13.00;99.90
27384;DHT22;14851;51.166;4.760;2022-10-16T00:11:16;13.00;99.90
27384;DHT22;14851;51.166;4.760;2022-10-16T00:13:43;12.90;99.90
27384;DHT22;14851;51.166;4.760;2022-10-16T00:16:11;12.90;99.90
27384;DHT22;14851;51.166;4.760;2022-10-16T00:18:37;12.90;99.90
27384;DHT22;14851;51.166;4.760;2022-10-16T00:21:04;12.90;99.90
27384;DHT22;14851;51.166;4.760;2022-10-16T00:23:33;12.90;99.90
27384;DHT22;14851;51.166;4.760;2022-10-16T00:26:00;12.80;99.90
27384;DHT22;14851;51.166;4.760;2022-10-16T00:28:27;12.80;99.90
27384;DHT22;14851;51.166;4.760;2022-10-16T00:30:54;12.80;99.90
27384;DHT22;14851;51.166;4.760;2022-10-16T00:33:20;12.70;99.90
27384;DHT22;14851;51.166;4.760;2022-10-16T00:35:46;12.70;99.90
27384;DHT22;14851;51.166;4.760;2022-10-16T00:38:12;12.70;99.90
27384;DHT22;14851;51.166;4.760;2022-10-16T00:40:39;12.70;99.90
27384;DHT22;14851;51.166;4.760;2022-10-16T00:43:32;12.70;99.90
27384;DHT22;14851;51.166;4.760;2022-10-16T00:45:59;12.70;99.90
27384;DHT22;14851;51.166;4.760;2022-10-16T00:48:26;12.60;99.90
27384;DHT22;14851;51.166;4.760;2022-10-16T00:50:51;12.60;99.90
27384;DHT22;14851;51.166;4.760;2022-10-16T00:53:17;12.60;99.90
27384;DHT22;14851;51.166;4.760;2022-10-16T00:55:43;12.60;99.90
27384;DHT22;14851;51.166;4.760;2022-10-16T00:58:12;12.60;99.90
27384;DHT22;14851;51.166;4.760;2022-10-16T01:00:38;12.60;99.90
27384;DHT22;14851;51.166;4.760;2022-10-16T01:03:21;12.50;99.90
27384;DHT22;14851;51.166;4.760;2022-10-16T01:05:54;12.50;99.90
27384;DHT22;14851;51.166;4.760;2022-10-16T01:08:30;12.50;99.90
27384;DHT22;14851;51.166;4.760;2022-10-16T01:11:00;12.50;99.90
27384;DHT22;14851;51.166;4.760;2022-10-16T01:13:27;12.40;99.90
27384;DHT22;14851;51.166;4.760;2022-10-16T01:16:08;12.40;99.90
27384;DHT22;14851;51.166;4.760;2022-10-16T01:18:51;12.50;99.90
27384;DHT22;14851;51.166;4.760;2022-10-16T01:21:23;12.50;99.90
27384;DHT22;14851;51.166;4.760;2022-10-16T01:23:51;12.50;99.90
27384;DHT22;14851;51.166;4.760;2022-10-16T01:31:29;12.60;99.90
27384;DHT22;14851;51.166;4.760;2022-10-16T01:34:18;12.60;99.90
27384;DHT22;14851;51.166;4.760;2022-10-16T01:36:48;12.60;99.90
27384;DHT22;14851;51.166;4.760;2022-10-16T01:39:20;12.50;99.90
27384;DHT22;14851;51.166;4.760;2022-10-16T01:42:11;12.60;99.90
27384;DHT22;14851;51.166;4.760;2022-10-16T01:44:35;12.60;99.90
27384;DHT22;14851;51.166;4.760;2022-10-16T01:47:02;12.50;99.90
27384;DHT22;14851;51.166;4.760;2022-10-16T01:49:31;12.50;99.90
27384;DHT22;14851;51.166;4.760;2022-10-16T01:51:59;12.40;99.90
27384;DHT22;14851;51.166;4.760;2022-10-16T01:54:28;12.40;99.90
27384;DHT22;14851;51.166;4.760;2022-10-16T01:56:56;12.30;99.90
27384;DHT22;14851;51.166;4.760;2022-10-16T01:59:24;12.30;99.90
27384;DHT22;14851;51.166;4.760;2022-10-16T02:01:59;12.20;99.90
27384;DHT22;14851;51.166;4.760;2022-10-16T02:04:39;12.20;99.90
27384;DHT22;14851;51.166;4.760;2022-10-16T02:07:06;12.20;99.90
27384;DHT22;14851;51.166;4.760;2022-10-16T02:09:33;12.10;99.90
27384;DHT22;14851;51.166;4.760;2022-10-16T02:12:03;12.10;99.90
27384;DHT22;14851;51.166;4.760;2022-10-16T02:14:33;12.10;99.90
27384;DHT22;14851;51.166;4.760;2022-10-16T02:17:01;12.10;99.90
27384;DHT22;14851;51.166;4.760;2022-10-16T02:19:29;12.00;99.90
27384;DHT22;14851;51.166;4.760;2022-10-16T02:22:00;12.00;99.90
27384;DHT22;14851;51.166;4.760;2022-10-16T02:27:14;12.00;99.90
27384;DHT22;14851;51.166;4.760;2022-10-16T02:29:45;12.00;99.90
27384;DHT22;14851;51.166;4.760;2022-10-16T02:32:14;12.00;99.90
27384;DHT22;14851;51.166;4.760;2022-10-16T02:34:41;12.00;99.90
27384;DHT22;14851;51.166;4.760;2022-10-16T02:37:07;12.00;99.90
27384;DHT22;14851;51.166;4.760;2022-10-16T02:39:34;12.00;99.90
27384;DHT22;14851;51.166;4.760;2022-10-16T02:42:00;11.90;99.90
27384;DHT22;14851;51.166;4.760;2022-10-16T02:44:29;11.90;99.90
27384;DHT22;14851;51.166;4.760;2022-10-16T02:46:55;11.90;99.90
27384;DHT22;14851;51.166;4.760;2022-10-16T02:49:21;11.90;99.90
27384;DHT22;14851;51.166;4.760;2022-10-16T02:51:47;11.80;99.90
27384;DHT22;14851;51.166;4.760;2022-10-16T02:54:13;11.90;99.90
27384;DHT22;14851;51.166;4.760;2022-10-16T02:56:40;11.90;99.90
27384;DHT22;14851;51.166;4.760;2022-10-16T02:59:06;11.90;99.90
27384;DHT22;14851;51.166;4.760;2022-10-16T03:01:32;11.90;99.90
27384;DHT22;14851;51.166;4.760;2022-10-16T03:03:58;11.90;99.90
27384;DHT22;14851;51.166;4.760;2022-10-16T03:06:23;11.90;99.90
27384;DHT22;14851;51.166;4.760;2022-10-16T03:08:49;11.90;99.90
27384;DHT22;14851;51.166;4.760;2022-10-16T03:11:16;11.90;99.90
27384;DHT22;14851;51.166;4.760;2022-10-16T03:13:42;11.90;99.90
27384;DHT22;14851;51.166;4.760;2022-10-16T03:16:08;11.90;99.90
27384;DHT22;14851;51.166;4.760;2022-10-16T03:18:34;11.90;99.90
27384;DHT22;14851;51.166;4.760;2022-10-16T03:21:01;11.90;99.90
27384;DHT22;14851;51.166;4.760;2022-10-16T03:23:26;11.90;99.90
27384;DHT22;14851;51.166;4.760;2022-10-16T03:25:53;12.00;99.90
27384;DHT22;14851;51.166;4.760;2022-10-16T03:28:19;11.90;99.90
27384;DHT22;14851;51.166;4.760;2022-10-16T03:30:45;12.00;99.90
27384;DHT22;14851;51.166;4.760;2022-10-16T03:33:11;12.00;99.90
27384;DHT22;14851;51.166;4.760;2022-10-16T03:35:39;12.00;99.90
27384;DHT22;14851;51.166;4.760;2022-10-16T03:38:05;12.00;99.90
27384;DHT22;14851;51.166;4.760;2022-10-16T03:40:31;12.00;99.90
27384;DHT22;14851;51.166;4.760;2022-10-16T03:42:59;11.90;99.90
27384;DHT22;14851;51.166;4.760;2022-10-16T03:45:32;12.00;99.90
27384;DHT22;14851;51.166;4.760;2022-10-16T03:47:58;12.00;99.90
27384;DHT22;14851;51.166;4.760;2022-10-16T03:50:24;12.00;99.90
27384;DHT22;14851;51.166;4.760;2022-10-16T03:52:50;11.90;99.90
27384;DHT22;14851;51.166;4.760;2022-10-16T03:55:18;12.00;99.90
27384;DHT22;14851;51.166;4.760;2022-10-16T03:57:44;12.00;99.90
27384;DHT22;14851;51.166;4.760;2022-10-16T04:00:11;11.90;99.90
27384;DHT22;14851;51.166;4.760;2022-10-16T04:02:42;12.00;99.90
27384;DHT22;14851;51.166;4.760;2022-10-16T04:05:08;12.00;99.90
27384;DHT22;14851;51.166;4.760;2022-10-16T04:07:33;12.00;99.90
27384;DHT22;14851;51.166;4.760;2022-10-16T04:09:59;12.00;99.90
27384;DHT22;14851;51.166;4.760;2022-10-16T04:12:26;12.00;99.90
27384;DHT22;14851;51.166;4.760;2022-10-16T04:14:52;12.00;99.90
27384;DHT22;14851;51.166;4.760;2022-10-16T04:17:19;12.00;99.90
27384;DHT22;14851;51.166;4.760;2022-10-16T04:19:45;12.00;99.90
27384;DHT22;14851;51.166;4.760;2022-10-16T04:22:13;12.00;99.90
27384;DHT22;14851;51.166;4.760;2022-10-16T04:24:40;11.90;99.90
27384;DHT22;14851;51.166;4.760;2022-10-16T04:27:06;11.90;99.90
27384;DHT22;14851;51.166;4.760;2022-10-16T04:29:32;11.90;99.90
27384;DHT22;14851;51.166;4.760;2022-10-16T04:32:01;11.90;99.90
27384;DHT22;14851;51.166;4.760;2022-10-16T04:34:26;11.90;99.90
27384;DHT22;14851;51.166;4.760;2022-10-16T04:36:52;11.90;99.90
27384;DHT22;14851;51.166;4.760;2022-10-16T04:39:18;11.90;99.90
27384;DHT22;14851;51.166;4.760;2022-10-16T04:41:45;11.90;99.90
27384;DHT22;14851;51.166;4.760;2022-10-16T04:44:11;11.90;99.90
27384;DHT22;14851;51.166;4.760;2022-10-16T04:46:38;11.90;99.90
27384;DHT22;14851;51.166;4.760;2022-10-16T04:49:04;11.80;99.90
27384;DHT22;14851;51.166;4.760;2022-10-16T04:51:31;11.80;99.90
27384;DHT22;14851;51.166;4.760;2022-10-16T04:53:58;11.80;99.90
27384;DHT22;14851;51.166;4.760;2022-10-16T04:56:24;11.80;99.90
27384;DHT22;14851;51.166;4.760;2022-10-16T04:58:50;11.80;99.90
27384;DHT22;14851;51.166;4.760;2022-10-16T05:01:16;11.80;99.90
27384;DHT22;14851;51.166;4.760;2022-10-16T05:03:42;11.80;99.90
27384;DHT22;14851;51.166;4.760;2022-10-16T05:06:07;11.70;99.90
27384;DHT22;14851;51.166;4.760;2022-10-16T05:08:36;11.70;99.90
27384;DHT22;14851;51.166;4.760;2022-10-16T05:11:03;11.70;99.90
27384;DHT22;14851;51.166;4.760;2022-10-16T05:13:29;11.70;99.90
27384;DHT22;14851;51.166;4.760;2022-10-16T05:15:54;11.70;99.90
27384;DHT22;14851;51.166;4.760;2022-10-16T05:18:22;11.70;99.90
27384;DHT22;14851;51.166;4.760;2022-10-16T05:20:51;11.60;99.90
27384;DHT22;14851;51.166;4.760;2022-10-16T05:23:16;11.60;99.90
27384;DHT22;14851;51.166;4.760;2022-10-16T05:25:42;11.60;99.90
27384;DHT22;14851;51.166;4.760;2022-10-16T05:28:13;11.60;99.90
27384;DHT22;14851;51.166;4.760;2022-10-16T05:30:40;11.60;99.90
27384;DHT22;14851;51.166;4.760;2022-10-16T05:33:08;11.60;99.90
27384;DHT22;14851;51.166;4.760;2022-10-16T05:35:33;11.60;99.90
27384;DHT22;14851;51.166;4.760;2022-10-16T05:37:59;11.60;99.90
27384;DHT22;14851;51.166;4.760;2022-10-16T05:40:24;11.60;99.90
27384;DHT22;14851;51.166;4.760;2022-10-16T05:42:54;11.60;99.90
27384;DHT22;14851;51.166;4.760;2022-10-16T05:45:19;11.60;99.90
27384;DHT22;14851;51.166;4.760;2022-10-16T05:47:45;11.60;99.90
27384;DHT22;14851;51.166;4.760;2022-10-16T05:50:13;11.60;99.90
27384;DHT22;14851;51.166;4.760;2022-10-16T05:52:41;11.60;99.90
27384;DHT22;14851;51.166;4.760;2022-10-16T05:55:07;11.60;99.90
27384;DHT22;14851;51.166;4.760;2022-10-16T05:57:35;11.60;99.90
27384;DHT22;14851;51.166;4.760;2022-10-16T06:00:01;11.60;99.90
27384;DHT22;14851;51.166;4.760;2022-10-16T06:02:27;11.50;99.90
27384;DHT22;14851;51.166;4.760;2022-10-16T06:04:53;11.60;99.90
27384;DHT22;14851;51.166;4.760;2022-10-16T06:07:20;11.60;99.90
27384;DHT22;14851;51.166;4.760;2022-10-16T06:09:51;11.60;99.90
27384;DHT22;14851;51.166;4.760;2022-10-16T06:12:19;11.60;99.90
27384;DHT22;14851;51.166;4.760;2022-10-16T06:14:52;11.50;99.90
27384;DHT22;14851;51.166;4.760;2022-10-16T06:17:19;11.50;99.90
27384;DHT22;14851;51.166;4.760;2022-10-16T06:19:47;11.50;99.90
27384;DHT22;14851;51.166;4.760;2022-10-16T06:22:17;11.50;99.90
27384;DHT22;14851;51.166;4.760;2022-10-16T06:24:45;11.50;99.90
27384;DHT22;14851;51.166;4.760;2022-10-16T06:27:16;11.50;99.90
27384;DHT22;14851;51.166;4.760;2022-10-16T06:29:44;11.60;99.90
27384;DHT22;14851;51.166;4.760;2022-10-16T06:32:10;11.50;99.90
27384;DHT22;14851;51.166;4.760;2022-10-16T06:34:36;11.60;99.90
27384;DHT22;14851;51.166;4.760;2022-10-16T06:37:05;11.60;99.90
27384;DHT22;14851;51.166;4.760;2022-10-16T06:39:31;11.70;99.90
27384;DHT22;14851;51.166;4.760;2022-10-16T06:41:59;11.70;99.90
27384;DHT22;14851;51.166;4.760;2022-10-16T06:44:28;11.70;99.90
27384;DHT22;14851;51.166;4.760;2022-10-16T06:46:56;11.70;99.90
27384;DHT22;14851;51.166;4.760;2022-10-16T06:49:22;11.70;99.90
27384;DHT22;14851;51.166;4.760;2022-10-16T06:51:48;11.70;99.90
27384;DHT22;14851;51.166;4.760;2022-10-16T06:54:15;11.80;99.90
27384;DHT22;14851;51.166;4.760;2022-10-16T06:56:40;11.80;99.90
27384;DHT22;14851;51.166;4.760;2022-10-16T06:59:06;11.90;99.90
27384;DHT22;14851;51.166;4.760;2022-10-16T07:01:34;11.80;99.90
27384;DHT22;14851;51.166;4.760;2022-10-16T07:04:00;11.80;99.90
27384;DHT22;14851;51.166;4.760;2022-10-16T07:06:30;11.80;99.90
27384;DHT22;14851;51.166;4.760;2022-10-16T07:09:02;11.80;99.90
27384;DHT22;14851;51.166;4.760;2022-10-16T07:11:30;11.90;99.90
27384;DHT22;14851;51.166;4.760;2022-10-16T07:13:55;12.00;99.90
27384;DHT22;14851;51.166;4.760;2022-10-16T07:16:24;11.90;99.90
27384;DHT22;14851;51.166;4.760;2022-10-16T07:18:50;12.00;99.90
27384;DHT22;14851;51.166;4.760;2022-10-16T07:21:20;12.00;99.90
27384;DHT22;14851;51.166;4.760;2022-10-16T07:23:50;12.00;99.90
27384;DHT22;14851;51.166;4.760;2022-10-16T07:26:19;12.10;99.90
27384;DHT22;14851;51.166;4.760;2022-10-16T07:28:47;12.20;99.90
27384;DHT22;14851;51.166;4.760;2022-10-16T07:31:14;12.20;99.90
27384;DHT22;14851;51.166;4.760;2022-10-16T07:33:41;12.20;99.90
27384;DHT22;14851;51.166;4.760;2022-10-16T07:36:09;12.20;99.90
27384;DHT22;14851;51.166;4.760;2022-10-16T07:38:36;12.20;99.90
27384;DHT22;14851;51.166;4.760;2022-10-16T07:41:03;12.30;99.90
27384;DHT22;14851;51.166;4.760;2022-10-16T07:43:31;12.30;99.90
27384;DHT22;14851;51.166;4.760;2022-10-16T07:46:00;12.40;99.90
27384;DHT22;14851;51.166;4.760;2022-10-16T07:48:31;12.40;99.90
27384;DHT22;14851;51.166;4.760;2022-10-16T07:51:00;12.50;99.90
27384;DHT22;14851;51.166;4.760;2022-10-16T07:53:26;12.50;99.90
27384;DHT22;14851;51.166;4.760;2022-10-16T07:55:57;12.60;99.90
27384;DHT22;14851;51.166;4.760;2022-10-16T07:58:24;12.60;99.90
27384;DHT22;14851;51.166;4.760;2022-10-16T08:00:50;12.60;99.90
27384;DHT22;14851;51.166;4.760;2022-10-16T08:03:17;12.70;99.90
27384;DHT22;14851;51.166;4.760;2022-10-16T08:05:43;12.70;99.90
27384;DHT22;14851;51.166;4.760;2022-10-16T08:08:13;12.80;99.90
27384;DHT22;14851;51.166;4.760;2022-10-16T08:10:39;12.90;99.90
27384;DHT22;14851;51.166;4.760;2022-10-16T08:13:07;12.90;99.90
27384;DHT22;14851;51.166;4.760;2022-10-16T08:15:33;12.90;99.90
27384;DHT22;14851;51.166;4.760;2022-10-16T08:18:00;12.90;99.90
27384;DHT22;14851;51.166;4.760;2022-10-16T08:20:27;12.90;99.90
27384;DHT22;14851;51.166;4.760;2022-10-16T08:22:59;13.00;99.90
27384;DHT22;14851;51.166;4.760;2022-10-16T08:25:27;13.00;99.90
27384;DHT22;14851;51.166;4.760;2022-10-16T08:27:54;13.00;99.90
27384;DHT22;14851;51.166;4.760;2022-10-16T08:30:21;13.10;99.90
27384;DHT22;14851;51.166;4.760;2022-10-16T08:32:47;13.10;99.90
27384;DHT22;14851;51.166;4.760;2022-10-16T08:35:13;13.10;99.90
27384;DHT22;14851;51.166;4.760;2022-10-16T08:37:39;13.20;99.90
27384;DHT22;14851;51.166;4.760;2022-10-16T08:40:16;13.20;99.90
27384;DHT22;14851;51.166;4.760;2022-10-16T08:42:46;13.30;99.90
27384;DHT22;14851;51.166;4.760;2022-10-16T08:50:41;13.40;99.90
27384;DHT22;14851;51.166;4.760;2022-10-16T08:53:07;13.40;99.90
27384;DHT22;14851;51.166;4.760;2022-10-16T08:58:15;13.50;99.90
27384;DHT22;14851;51.166;4.760;2022-10-16T09:00:44;13.50;99.90
27384;DHT22;14851;51.166;4.760;2022-10-16T09:10:57;13.60;99.90
27384;DHT22;14851;51.166;4.760;2022-10-16T09:13:28;13.60;99.90
27384;DHT22;14851;51.166;4.760;2022-10-16T09:21:30;13.70;99.90
27384;DHT22;14851;51.166;4.760;2022-10-16T09:24:06;13.80;99.90
27384;DHT22;14851;51.166;4.760;2022-10-16T09:26:35;13.90;99.90
27384;DHT22;14851;51.166;4.760;2022-10-16T09:29:04;13.90;99.90
27384;DHT22;14851;51.166;4.760;2022-10-16T09:31:29;14.00;99.90
27384;DHT22;14851;51.166;4.760;2022-10-16T09:33:59;14.00;99.90
27384;DHT22;14851;51.166;4.760;2022-10-16T09:36:30;13.90;99.90
27384;DHT22;14851;51.166;4.760;2022-10-16T09:39:03;13.90;99.90
27384;DHT22;14851;51.166;4.760;2022-10-16T09:41:34;14.00;99.90
27384;DHT22;14851;51.166;4.760;2022-10-16T09:44:03;14.00;99.90
27384;DHT22;14851;51.166;4.760;2022-10-16T09:46:32;14.10;99.90
27384;DHT22;14851;51.166;4.760;2022-10-16T09:48:59;14.10;99.90
27384;DHT22;14851;51.166;4.760;2022-10-16T09:51:27;14.30;99.90
27384;DHT22;14851;51.166;4.760;2022-10-16T09:53:59;14.70;99.90
27384;DHT22;14851;51.166;4.760;2022-10-16T09:56:27;15.10;99.90
27384;DHT22;14851;51.166;4.760;2022-10-16T09:58:57;15.40;99.90
27384;DHT22;14851;51.166;4.760;2022-10-16T10:01:27;15.60;99.90
27384;DHT22;14851;51.166;4.760;2022-10-16T10:03:59;15.50;99.90
27384;DHT22;14851;51.166;4.760;2022-10-16T10:06:34;15.40;99.90
27384;DHT22;14851;51.166;4.760;2022-10-16T10:16:43;15.10;99.90
27384;DHT22;14851;51.166;4.760;2022-10-16T10:19:15;15.10;99.90
27384;DHT22;14851;51.166;4.760;2022-10-16T10:21:42;15.00;99.90
27384;DHT22;14851;51.166;4.760;2022-10-16T10:24:12;15.10;99.90
27384;DHT22;14851;51.166;4.760;2022-10-16T10:27:31;15.00;99.90
27384;DHT22;14851;51.166;4.760;2022-10-16T10:34:39;15.10;99.90
27384;DHT22;14851;51.166;4.760;2022-10-16T10:37:12;15.10;99.90
27384;DHT22;14851;51.166;4.760;2022-10-16T10:39:54;15.10;99.90
27384;DHT22;14851;51.166;4.760;2022-10-16T10:42:28;15.10;99.90
27384;DHT22;14851;51.166;4.760;2022-10-16T10:50:14;15.20;99.90
27384;DHT22;14851;51.166;4.760;2022-10-16T10:52:53;15.30;99.90
27384;DHT22;14851;51.166;4.760;2022-10-16T11:05:51;15.30;99.90
27384;DHT22;14851;51.166;4.760;2022-10-16T11:08:31;15.30;99.90
27384;DHT22;14851;51.166;4.760;2022-10-16T11:11:01;15.30;99.90
27384;DHT22;14851;51.166;4.760;2022-10-16T11:13:51;15.40;99.90
27384;DHT22;14851;51.166;4.760;2022-10-16T11:16:22;15.50;99.90
27384;DHT22;14851;51.166;4.760;2022-10-16T11:27:30;15.90;99.90
27384;DHT22;14851;51.166;4.760;2022-10-16T11:30:03;16.00;99.90
27384;DHT22;14851;51.166;4.760;2022-10-16T11:32:33;16.00;99.90
27384;DHT22;14851;51.166;4.760;2022-10-16T11:35:04;16.00;99.90
27384;DHT22;14851;51.166;4.760;2022-10-16T11:37:35;16.00;99.90
27384;DHT22;14851;51.166;4.760;2022-10-16T11:45:54;16.10;99.90
27384;DHT22;14851;51.166;4.760;2022-10-16T11:48:30;16.20;99.90
27384;DHT22;14851;51.166;4.760;2022-10-16T11:51:06;16.10;99.90
27384;DHT22;14851;51.166;4.760;2022-10-16T11:56:17;16.30;99.90
27384;DHT22;14851;51.166;4.760;2022-10-16T11:58:49;16.40;99.90
27384;DHT22;14851;51.166;4.760;2022-10-16T12:06:35;16.70;99.90
27384;DHT22;14851;51.166;4.760;2022-10-16T12:09:03;16.70;99.90
27384;DHT22;14851;51.166;4.760;2022-10-16T12:11:34;16.70;99.90
27384;DHT22;14851;51.166;4.760;2022-10-16T12:16:36;16.70;99.90
27384;DHT22;14851;51.166;4.760;2022-10-16T12:19:13;16.70;99.90
27384;DHT22;14851;51.166;4.760;2022-10-16T12:21:42;16.70;99.90
27384;DHT22;14851;51.166;4.760;2022-10-16T12:26:54;16.60;99.90
27384;DHT22;14851;51.166;4.760;2022-10-16T12:31:55;16.70;99.90
27384;DHT22;14851;51.166;4.760;2022-10-16T12:37:07;16.70;99.90
27384;DHT22;14851;51.166;4.760;2022-10-16T12:39:34;16.60;99.90
27384;DHT22;14851;51.166;4.760;2022-10-16T12:42:30;16.60;99.90
27384;DHT22;14851;51.166;4.760;2022-10-16T12:44:49;16.50;99.90
27384;DHT22;14851;51.166;4.760;2022-10-16T12:47:19;16.50;99.90
27384;DHT22;14851;51.166;4.760;2022-10-16T12:49:49;16.50;99.90
27384;DHT22;14851;51.166;4.760;2022-10-16T12:52:24;16.50;99.90
27384;DHT22;14851;51.166;4.760;2022-10-16T12:54:50;16.50;99.90
27384;DHT22;14851;51.166;4.760;2022-10-16T13:05:02;16.70;99.90
27384;DHT22;14851;51.166;4.760;2022-10-16T13:12:51;16.80;99.90
27384;DHT22;14851;51.166;4.760;2022-10-16T13:15:30;16.80;99.90
27384;DHT22;14851;51.166;4.760;2022-10-16T13:23:27;17.00;99.90
27384;DHT22;14851;51.166;4.760;2022-10-16T13:28:43;17.00;99.90
27384;DHT22;14851;51.166;4.760;2022-10-16T13:31:13;17.00;99.90
27384;DHT22;14851;51.166;4.760;2022-10-16T13:33:41;17.00;99.90
27384;DHT22;14851;51.166;4.760;2022-10-16T13:36:17;17.10;99.90
27384;DHT22;14851;51.166;4.760;2022-10-16T13:38:45;17.10;99.90
27384;DHT22;14851;51.166;4.760;2022-10-16T13:41:16;17.20;99.90
27384;DHT22;14851;51.166;4.760;2022-10-16T13:43:52;17.20;99.90
27384;DHT22;14851;51.166;4.760;2022-10-16T13:46:19;17.20;99.90
27384;DHT22;14851;51.166;4.760;2022-10-16T13:48:55;17.10;99.90
27384;DHT22;14851;51.166;4.760;2022-10-16T13:51:22;17.10;99.90
27384;DHT22;14851;51.166;4.760;2022-10-16T13:53:48;17.10;99.90
27384;DHT22;14851;51.166;4.760;2022-10-16T13:56:19;17.10;99.90
27384;DHT22;14851;51.166;4.760;2022-10-16T13:58:45;17.10;99.90
27384;DHT22;14851;51.166;4.760;2022-10-16T14:01:18;17.20;99.90
27384;DHT22;14851;51.166;4.760;2022-10-16T14:03:45;17.20;99.90
27384;DHT22;14851;51.166;4.760;2022-10-16T14:06:14;17.30;99.90
27384;DHT22;14851;51.166;4.760;2022-10-16T14:08:46;17.30;99.90
27384;DHT22;14851;51.166;4.760;2022-10-16T14:11:19;17.30;99.90
27384;DHT22;14851;51.166;4.760;2022-10-16T14:13:45;17.30;99.90
27384;DHT22;14851;51.166;4.760;2022-10-16T14:16:16;17.30;99.90
27384;DHT22;14851;51.166;4.760;2022-10-16T14:18:45;17.30;99.90
27384;DHT22;14851;51.166;4.760;2022-10-16T14:21:13;17.20;99.90
27384;DHT22;14851;51.166;4.760;2022-10-16T14:23:40;17.20;99.90
27384;DHT22;14851;51.166;4.760;2022-10-16T14:28:36;17.20;99.90
27384;DHT22;14851;51.166;4.760;2022-10-16T14:31:17;17.10;99.90
27384;DHT22;14851;51.166;4.760;2022-10-16T14:33:48;17.10;99.90
27384;DHT22;14851;51.166;4.760;2022-10-16T14:36:14;17.10;99.90
27384;DHT22;14851;51.166;4.760;2022-10-16T14:38:42;17.10;99.90
27384;DHT22;14851;51.166;4.760;2022-10-16T14:41:09;17.20;99.90
27384;DHT22;14851;51.166;4.760;2022-10-16T14:43:39;17.10;99.90
27384;DHT22;14851;51.166;4.760;2022-10-16T14:46:10;17.10;99.90
27384;DHT22;14851;51.166;4.760;2022-10-16T14:48:40;17.20;99.90
27384;DHT22;14851;51.166;4.760;2022-10-16T14:51:08;17.30;99.90
27384;DHT22;14851;51.166;4.760;2022-10-16T14:53:34;17.30;99.90
27384;DHT22;14851;51.166;4.760;2022-10-16T14:56:05;17.30;99.90
27384;DHT22;14851;51.166;4.760;2022-10-16T14:58:32;17.30;99.90
27384;DHT22;14851;51.166;4.760;2022-10-16T15:00:58;17.20;99.90
27384;DHT22;14851;51.166;4.760;2022-10-16T15:03:24;17.10;99.90
27384;DHT22;14851;51.166;4.760;2022-10-16T15:05:50;17.10;99.90
27384;DHT22;14851;51.166;4.760;2022-10-16T15:08:19;17.10;99.90
27384;DHT22;14851;51.166;4.760;2022-10-16T15:10:46;17.00;99.90
27384;DHT22;14851;51.166;4.760;2022-10-16T15:13:16;16.90;99.90
27384;DHT22;14851;51.166;4.760;2022-10-16T15:15:48;16.90;99.90
27384;DHT22;14851;51.166;4.760;2022-10-16T15:18:15;16.90;99.90
27384;DHT22;14851;51.166;4.760;2022-10-16T15:20:47;16.90;99.90
27384;DHT22;14851;51.166;4.760;2022-10-16T15:23:14;16.80;99.90
27384;DHT22;14851;51.166;4.760;2022-10-16T15:25:44;16.80;99.90
27384;DHT22;14851;51.166;4.760;2022-10-16T15:28:12;16.80;99.90
27384;DHT22;14851;51.166;4.760;2022-10-16T15:30:38;16.80;99.90
27384;DHT22;14851;51.166;4.760;2022-10-16T15:33:05;16.80;99.90
27384;DHT22;14851;51.166;4.760;2022-10-16T15:35:35;16.80;99.90
27384;DHT22;14851;51.166;4.760;2022-10-16T15:38:01;16.80;99.90
27384;DHT22;14851;51.166;4.760;2022-10-16T15:40:27;16.80;99.90
27384;DHT22;14851;51.166;4.760;2022-10-16T15:42:54;16.70;99.90
27384;DHT22;14851;51.166;4.760;2022-10-16T15:45:20;16.70;99.90
27384;DHT22;14851;51.166;4.760;2022-10-16T15:47:46;16.70;99.90
27384;DHT22;14851;51.166;4.760;2022-10-16T15:50:13;16.60;99.90
27384;DHT22;14851;51.166;4.760;2022-10-16T15:52:40;16.60;99.90
27384;DHT22;14851;51.166;4.760;2022-10-16T15:55:07;16.60;99.90
27384;DHT22;14851;51.166;4.760;2022-10-16T15:57:34;16.50;99.90
27384;DHT22;14851;51.166;4.760;2022-10-16T16:00:00;16.50;99.90
27384;DHT22;14851;51.166;4.760;2022-10-16T16:02:37;16.50;99.90
27384;DHT22;14851;51.166;4.760;2022-10-16T16:05:03;16.40;99.90
27384;DHT22;14851;51.166;4.760;2022-10-16T16:07:33;16.40;99.90
27384;DHT22;14851;51.166;4.760;2022-10-16T16:10:01;16.40;99.90
27384;DHT22;14851;51.166;4.760;2022-10-16T16:12:28;16.30;99.90
27384;DHT22;14851;51.166;4.760;2022-10-16T16:14:57;16.30;99.90
27384;DHT22;14851;51.166;4.760;2022-10-16T16:17:22;16.30;99.90
27384;DHT22;14851;51.166;4.760;2022-10-16T16:19:50;16.20;99.90
27384;DHT22;14851;51.166;4.760;2022-10-16T16:22:17;16.20;99.90
27384;DHT22;14851;51.166;4.760;2022-10-16T16:24:44;16.20;99.90
27384;DHT22;14851;51.166;4.760;2022-10-16T16:27:10;16.20;99.90
27384;DHT22;14851;51.166;4.760;2022-10-16T16:29:39;16.10;99.90
27384;DHT22;14851;51.166;4.760;2022-10-16T16:32:07;16.10;99.90
27384;DHT22;14851;51.166;4.760;2022-10-16T16:34:33;16.10;99.90
27384;DHT22;14851;51.166;4.760;2022-10-16T16:37:01;16.10;99.90
27384;DHT22;14851;51.166;4.760;2022-10-16T16:39:32;16.00;99.90
27384;DHT22;14851;51.166;4.760;2022-10-16T16:41:58;15.90;99.90
27384;DHT22;14851;51.166;4.760;2022-10-16T16:44:25;15.90;99.90
27384;DHT22;14851;51.166;4.760;2022-10-16T16:46:55;15.90;99.90
27384;DHT22;14851;51.166;4.760;2022-10-16T16:49:21;15.90;99.90
27384;DHT22;14851;51.166;4.760;2022-10-16T16:51:48;15.90;99.90
27384;DHT22;14851;51.166;4.760;2022-10-16T16:54:14;15.80;99.90
27384;DHT22;14851;51.166;4.760;2022-10-16T16:56:40;15.80;99.90
27384;DHT22;14851;51.166;4.760;2022-10-16T16:59:15;15.80;99.90
27384;DHT22;14851;51.166;4.760;2022-10-16T17:01:44;15.70;99.90
27384;DHT22;14851;51.166;4.760;2022-10-16T17:04:10;15.70;99.90
27384;DHT22;14851;51.166;4.760;2022-10-16T17:06:37;15.70;99.90
27384;DHT22;14851;51.166;4.760;2022-10-16T17:09:07;15.70;99.90
27384;DHT22;14851;51.166;4.760;2022-10-16T17:11:33;15.70;99.90
27384;DHT22;14851;51.166;4.760;2022-10-16T17:14:02;15.60;99.90
27384;DHT22;14851;51.166;4.760;2022-10-16T17:16:30;15.60;99.90
27384;DHT22;14851;51.166;4.760;2022-10-16T17:19:01;15.60;99.90
27384;DHT22;14851;51.166;4.760;2022-10-16T17:21:28;15.50;99.90
27384;DHT22;14851;51.166;4.760;2022-10-16T17:23:55;15.50;99.90
27384;DHT22;14851;51.166;4.760;2022-10-16T17:26:22;15.50;99.90
27384;DHT22;14851;51.166;4.760;2022-10-16T17:28:52;15.50;99.90
27384;DHT22;14851;51.166;4.760;2022-10-16T17:31:20;15.60;99.90
27384;DHT22;14851;51.166;4.760;2022-10-16T17:33:47;15.60;99.90